sensor_id;sensor_type;location;lat;lon;timestamp;temperature;humidity
9527;DHT22;4802;51.494;6.770;2022-08-24T00:00:50;23.40;1.00
9527;DHT22;4802;51.494;6.770;2022-08-24T00:03:22;23.30;1.00
9527;DHT22;4802;51.494;6.770;2022-08-24T00:06:01;23.40;1.00
9527;DHT22;4802;51.494;6.770;2022-08-24T00:08:54;23.40;1.00
9527;DHT22;4802;51.494;6.770;2022-08-24T00:11:28;23.40;1.00
9527;DHT22;4802;51.494;6.770;2022-08-24T00:14:17;23.30;1.00
9527;DHT22;4802;51.494;6.770;2022-08-24T00:20:04;23.20;1.00
9527;DHT22;4802;51.494;6.770;2022-08-24T00:22:34;23.20;1.00
9527;DHT22;4802;51.494;6.770;2022-08-24T00:25:04;23.10;1.00
9527;DHT22;4802;51.494;6.770;2022-08-24T00:27:34;23.10;1.00
9527;DHT22;4802;51.494;6.770;2022-08-24T00:30:05;23.20;1.00
9527;DHT22;4802;51.494;6.770;2022-08-24T00:32:34;23.20;1.00
9527;DHT22;4802;51.494;6.770;2022-08-24T00:35:17;23.10;1.00
9527;DHT22;4802;51.494;6.770;2022-08-24T00:37:48;23.10;1.00
9527;DHT22;4802;51.494;6.770;2022-08-24T00:40:26;22.90;1.00
9527;DHT22;4802;51.494;6.770;2022-08-24T00:42:56;22.90;1.00
9527;DHT22;4802;51.494;6.770;2022-08-24T00:45:29;23.00;1.00
9527;DHT22;4802;51.494;6.770;2022-08-24T00:48:02;22.90;1.00
9527;DHT22;4802;51.494;6.770;2022-08-24T00:50:36;22.90;1.00
9527;DHT22;4802;51.494;6.770;2022-08-24T00:53:11;22.90;1.00
9527;DHT22;4802;51.494;6.770;2022-08-24T00:55:44;22.90;1.00
9527;DHT22;4802;51.494;6.770;2022-08-24T00:58:17;22.90;1.00
9527;DHT22;4802;51.494;6.770;2022-08-24T01:00:50;22.90;1.00
9527;DHT22;4802;51.494;6.770;2022-08-24T01:03:27;22.90;1.00
9527;DHT22;4802;51.494;6.770;2022-08-24T01:06:15;22.90;1.00
9527;DHT22;4802;51.494;6.770;2022-08-24T01:08:55;22.50;1.00
9527;DHT22;4802;51.494;6.770;2022-08-24T01:11:26;22.80;1.00
9527;DHT22;4802;51.494;6.770;2022-08-24T01:14:03;22.60;1.00
9527;DHT22;4802;51.494;6.770;2022-08-24T01:16:37;22.60;1.00
9527;DHT22;4802;51.494;6.770;2022-08-24T01:19:32;22.50;1.00
9527;DHT22;4802;51.494;6.770;2022-08-24T01:22:15;22.40;1.00
9527;DHT22;4802;51.494;6.770;2022-08-24T01:24:48;22.60;1.00
9527;DHT22;4802;51.494;6.770;2022-08-24T01:27:17;22.60;1.00
9527;DHT22;4802;51.494;6.770;2022-08-24T01:29:58;22.50;1.00
9527;DHT22;4802;51.494;6.770;2022-08-24T01:32:29;22.50;1.00
9527;DHT22;4802;51.494;6.770;2022-08-24T01:34:58;22.50;1.00
9527;DHT22;4802;51.494;6.770;2022-08-24T01:37:28;22.40;1.00
9527;DHT22;4802;51.494;6.770;2022-08-24T01:40:03;22.30;1.00
9527;DHT22;4802;51.494;6.770;2022-08-24T01:42:33;22.30;1.00
9527;DHT22;4802;51.494;6.770;2022-08-24T01:45:03;22.30;1.00
9527;DHT22;4802;51.494;6.770;2022-08-24T01:47:32;22.40;1.00
9527;DHT22;4802;51.494;6.770;2022-08-24T01:50:03;22.40;1.00
9527;DHT22;4802;51.494;6.770;2022-08-24T01:52:33;22.30;1.00
9527;DHT22;4802;51.494;6.770;2022-08-24T01:55:26;22.40;1.00
9527;DHT22;4802;51.494;6.770;2022-08-24T01:57:56;22.20;1.00
9527;DHT22;4802;51.494;6.770;2022-08-24T02:00:26;22.10;1.00
9527;DHT22;4802;51.494;6.770;2022-08-24T02:02:54;22.20;1.00
9527;DHT22;4802;51.494;6.770;2022-08-24T02:05:24;22.20;1.00
9527;DHT22;4802;51.494;6.770;2022-08-24T02:08:17;22.20;1.00
9527;DHT22;4802;51.494;6.770;2022-08-24T02:10:47;22.20;1.00
9527;DHT22;4802;51.494;6.770;2022-08-24T02:13:24;22.20;1.00
9527;DHT22;4802;51.494;6.770;2022-08-24T02:16:06;22.20;1.00
9527;DHT22;4802;51.494;6.770;2022-08-24T02:18:43;22.20;1.00
9527;DHT22;4802;51.494;6.770;2022-08-24T02:21:14;22.30;1.00
9527;DHT22;4802;51.494;6.770;2022-08-24T02:23:51;22.20;1.00
9527;DHT22;4802;51.494;6.770;2022-08-24T02:26:31;22.10;1.00
9527;DHT22;4802;51.494;6.770;2022-08-24T02:29:10;22.10;1.00
9527;DHT22;4802;51.494;6.770;2022-08-24T02:31:42;22.00;1.00
9527;DHT22;4802;51.494;6.770;2022-08-24T02:34:16;22.10;1.00
9527;DHT22;4802;51.494;6.770;2022-08-24T02:36:47;22.10;1.00
9527;DHT22;4802;51.494;6.770;2022-08-24T02:39:15;22.00;1.00
9527;DHT22;4802;51.494;6.770;2022-08-24T02:41:47;21.90;1.00
9527;DHT22;4802;51.494;6.770;2022-08-24T02:44:16;21.90;1.00
9527;DHT22;4802;51.494;6.770;2022-08-24T02:46:45;21.90;1.00
9527;DHT22;4802;51.494;6.770;2022-08-24T02:49:14;21.90;1.00
9527;DHT22;4802;51.494;6.770;2022-08-24T02:51:45;21.80;1.00
9527;DHT22;4802;51.494;6.770;2022-08-24T02:54:15;21.90;1.00
9527;DHT22;4802;51.494;6.770;2022-08-24T02:56:46;21.90;1.00
9527;DHT22;4802;51.494;6.770;2022-08-24T02:59:16;21.80;1.00
9527;DHT22;4802;51.494;6.770;2022-08-24T03:01:46;21.80;1.00
9527;DHT22;4802;51.494;6.770;2022-08-24T03:04:17;21.70;1.00
9527;DHT22;4802;51.494;6.770;2022-08-24T03:06:46;21.70;1.00
9527;DHT22;4802;51.494;6.770;2022-08-24T03:09:15;21.60;1.00
9527;DHT22;4802;51.494;6.770;2022-08-24T03:11:44;21.60;1.00
9527;DHT22;4802;51.494;6.770;2022-08-24T03:14:15;21.60;1.00
9527;DHT22;4802;51.494;6.770;2022-08-24T03:16:45;21.60;1.00
9527;DHT22;4802;51.494;6.770;2022-08-24T03:19:14;21.50;1.00
9527;DHT22;4802;51.494;6.770;2022-08-24T03:21:43;21.80;1.00
9527;DHT22;4802;51.494;6.770;2022-08-24T03:24:12;21.40;1.00
9527;DHT22;4802;51.494;6.770;2022-08-24T03:26:41;21.50;1.00
9527;DHT22;4802;51.494;6.770;2022-08-24T03:29:10;21.40;1.00
9527;DHT22;4802;51.494;6.770;2022-08-24T03:31:43;21.30;1.00
9527;DHT22;4802;51.494;6.770;2022-08-24T03:34:13;21.20;1.00
9527;DHT22;4802;51.494;6.770;2022-08-24T03:36:42;21.20;1.00
9527;DHT22;4802;51.494;6.770;2022-08-24T03:39:13;21.20;1.00
9527;DHT22;4802;51.494;6.770;2022-08-24T03:41:43;21.20;1.00
9527;DHT22;4802;51.494;6.770;2022-08-24T03:44:15;21.30;1.00
9527;DHT22;4802;51.494;6.770;2022-08-24T03:46:51;21.30;1.00
9527;DHT22;4802;51.494;6.770;2022-08-24T03:49:20;21.20;1.00
9527;DHT22;4802;51.494;6.770;2022-08-24T03:51:50;21.40;1.00
9527;DHT22;4802;51.494;6.770;2022-08-24T03:54:19;21.20;1.00
9527;DHT22;4802;51.494;6.770;2022-08-24T03:56:48;21.20;1.00
9527;DHT22;4802;51.494;6.770;2022-08-24T03:59:16;21.20;1.00
9527;DHT22;4802;51.494;6.770;2022-08-24T04:01:46;21.10;1.00
9527;DHT22;4802;51.494;6.770;2022-08-24T04:04:17;21.10;1.00
9527;DHT22;4802;51.494;6.770;2022-08-24T04:06:46;21.10;1.00
9527;DHT22;4802;51.494;6.770;2022-08-24T04:12:06;20.70;1.00
9527;DHT22;4802;51.494;6.770;2022-08-24T04:14:35;21.00;1.00
9527;DHT22;4802;51.494;6.770;2022-08-24T04:17:05;21.00;1.00
9527;DHT22;4802;51.494;6.770;2022-08-24T04:19:35;21.00;1.00
9527;DHT22;4802;51.494;6.770;2022-08-24T04:22:04;21.00;1.00
9527;DHT22;4802;51.494;6.770;2022-08-24T04:24:33;21.00;1.00
9527;DHT22;4802;51.494;6.770;2022-08-24T04:27:02;21.00;1.00
9527;DHT22;4802;51.494;6.770;2022-08-24T04:29:31;20.90;1.00
9527;DHT22;4802;51.494;6.770;2022-08-24T04:32:00;20.80;1.00
9527;DHT22;4802;51.494;6.770;2022-08-24T04:34:29;20.80;1.00
9527;DHT22;4802;51.494;6.770;2022-08-24T04:37:01;20.80;1.00
9527;DHT22;4802;51.494;6.770;2022-08-24T04:39:35;20.90;1.00
9527;DHT22;4802;51.494;6.770;2022-08-24T04:42:06;20.80;1.00
9527;DHT22;4802;51.494;6.770;2022-08-24T04:44:35;20.80;1.00
9527;DHT22;4802;51.494;6.770;2022-08-24T04:47:05;20.90;1.00
9527;DHT22;4802;51.494;6.770;2022-08-24T04:49:35;20.90;1.00
9527;DHT22;4802;51.494;6.770;2022-08-24T04:52:06;20.90;1.00
9527;DHT22;4802;51.494;6.770;2022-08-24T04:54:36;20.90;1.00
9527;DHT22;4802;51.494;6.770;2022-08-24T04:57:05;20.90;1.00
9527;DHT22;4802;51.494;6.770;2022-08-24T04:59:34;21.00;1.00
9527;DHT22;4802;51.494;6.770;2022-08-24T05:02:04;21.10;1.00
9527;DHT22;4802;51.494;6.770;2022-08-24T05:04:34;21.10;1.00
9527;DHT22;4802;51.494;6.770;2022-08-24T05:07:05;21.10;1.00
9527;DHT22;4802;51.494;6.770;2022-08-24T05:09:35;21.10;1.00
9527;DHT22;4802;51.494;6.770;2022-08-24T05:12:04;21.10;1.00
9527;DHT22;4802;51.494;6.770;2022-08-24T05:14:34;21.00;1.00
9527;DHT22;4802;51.494;6.770;2022-08-24T05:17:04;21.20;1.00
9527;DHT22;4802;51.494;6.770;2022-08-24T05:19:36;21.80;1.00
9527;DHT22;4802;51.494;6.770;2022-08-24T05:22:07;22.90;1.00
9527;DHT22;4802;51.494;6.770;2022-08-24T05:24:37;23.90;1.00
9527;DHT22;4802;51.494;6.770;2022-08-24T05:27:09;24.70;1.00
9527;DHT22;4802;51.494;6.770;2022-08-24T05:29:40;25.40;1.00
9527;DHT22;4802;51.494;6.770;2022-08-24T05:32:09;26.00;1.00
9527;DHT22;4802;51.494;6.770;2022-08-24T05:34:40;26.30;1.00
9527;DHT22;4802;51.494;6.770;2022-08-24T05:37:13;25.80;1.00
9527;DHT22;4802;51.494;6.770;2022-08-24T05:39:44;25.30;1.00
9527;DHT22;4802;51.494;6.770;2022-08-24T05:42:13;24.80;1.00
9527;DHT22;4802;51.494;6.770;2022-08-24T05:44:42;24.40;1.00
9527;DHT22;4802;51.494;6.770;2022-08-24T05:47:11;24.00;1.00
9527;DHT22;4802;51.494;6.770;2022-08-24T05:49:40;23.90;1.00
9527;DHT22;4802;51.494;6.770;2022-08-24T05:52:13;23.70;1.00
9527;DHT22;4802;51.494;6.770;2022-08-24T05:54:44;23.70;1.00
9527;DHT22;4802;51.494;6.770;2022-08-24T05:57:14;24.30;1.00
9527;DHT22;4802;51.494;6.770;2022-08-24T05:59:44;25.50;1.00
9527;DHT22;4802;51.494;6.770;2022-08-24T06:02:13;26.70;1.00
9527;DHT22;4802;51.494;6.770;2022-08-24T06:04:42;28.10;1.00
9527;DHT22;4802;51.494;6.770;2022-08-24T06:07:14;29.20;99.90
9527;DHT22;4802;51.494;6.770;2022-08-24T06:09:43;29.90;99.90
9527;DHT22;4802;51.494;6.770;2022-08-24T06:12:13;30.50;99.90
9527;DHT22;4802;51.494;6.770;2022-08-24T06:14:44;30.90;99.90
9527;DHT22;4802;51.494;6.770;2022-08-24T06:17:14;31.30;99.90
9527;DHT22;4802;51.494;6.770;2022-08-24T06:19:43;31.80;99.90
9527;DHT22;4802;51.494;6.770;2022-08-24T06:22:14;32.20;99.90
9527;DHT22;4802;51.494;6.770;2022-08-24T06:24:43;32.30;99.90
9527;DHT22;4802;51.494;6.770;2022-08-24T06:27:30;32.70;99.90
9527;DHT22;4802;51.494;6.770;2022-08-24T06:30:00;32.90;99.90
9527;DHT22;4802;51.494;6.770;2022-08-24T06:32:33;33.00;99.90
9527;DHT22;4802;51.494;6.770;2022-08-24T06:35:05;33.60;99.90
9527;DHT22;4802;51.494;6.770;2022-08-24T06:37:46;34.10;1.00
9527;DHT22;4802;51.494;6.770;2022-08-24T06:40:23;34.20;1.00
9527;DHT22;4802;51.494;6.770;2022-08-24T06:42:54;34.50;99.90
9527;DHT22;4802;51.494;6.770;2022-08-24T06:45:27;34.70;99.90
9527;DHT22;4802;51.494;6.770;2022-08-24T06:47:57;35.00;1.00
9527;DHT22;4802;51.494;6.770;2022-08-24T06:50:26;35.40;99.90
9527;DHT22;4802;51.494;6.770;2022-08-24T06:53:01;35.20;99.90
9527;DHT22;4802;51.494;6.770;2022-08-24T06:55:33;35.60;99.90
9527;DHT22;4802;51.494;6.770;2022-08-24T06:58:03;35.30;99.90
9527;DHT22;4802;51.494;6.770;2022-08-24T07:00:34;35.80;1.00
9527;DHT22;4802;51.494;6.770;2022-08-24T07:03:03;36.10;99.90
9527;DHT22;4802;51.494;6.770;2022-08-24T07:05:35;36.30;99.90
9527;DHT22;4802;51.494;6.770;2022-08-24T07:08:07;36.10;99.90
9527;DHT22;4802;51.494;6.770;2022-08-24T07:10:37;36.20;99.90
9527;DHT22;4802;51.494;6.770;2022-08-24T07:13:06;36.30;99.90
9527;DHT22;4802;51.494;6.770;2022-08-24T07:15:36;36.70;99.90
9527;DHT22;4802;51.494;6.770;2022-08-24T07:18:07;37.00;99.90
9527;DHT22;4802;51.494;6.770;2022-08-24T07:20:42;37.30;99.90
9527;DHT22;4802;51.494;6.770;2022-08-24T07:23:21;36.80;99.90
9527;DHT22;4802;51.494;6.770;2022-08-24T07:26:10;36.80;99.90
9527;DHT22;4802;51.494;6.770;2022-08-24T07:28:51;36.70;99.90
9527;DHT22;4802;51.494;6.770;2022-08-24T07:31:21;36.60;99.90
9527;DHT22;4802;51.494;6.770;2022-08-24T07:33:55;37.10;99.90
9527;DHT22;4802;51.494;6.770;2022-08-24T07:36:25;37.40;99.90
9527;DHT22;4802;51.494;6.770;2022-08-24T07:39:16;38.00;99.90
9527;DHT22;4802;51.494;6.770;2022-08-24T07:41:46;37.90;99.90
9527;DHT22;4802;51.494;6.770;2022-08-24T07:44:36;38.30;99.90
9527;DHT22;4802;51.494;6.770;2022-08-24T07:47:09;38.50;99.90
9527;DHT22;4802;51.494;6.770;2022-08-24T07:49:58;38.70;99.90
9527;DHT22;4802;51.494;6.770;2022-08-24T07:52:28;38.60;99.90
9527;DHT22;4802;51.494;6.770;2022-08-24T07:55:00;39.00;99.90
9527;DHT22;4802;51.494;6.770;2022-08-24T07:57:35;38.80;99.90
9527;DHT22;4802;51.494;6.770;2022-08-24T08:00:09;38.90;99.90
9527;DHT22;4802;51.494;6.770;2022-08-24T08:02:40;38.80;99.90
9527;DHT22;4802;51.494;6.770;2022-08-24T08:05:17;38.80;99.90
9527;DHT22;4802;51.494;6.770;2022-08-24T08:07:47;39.10;99.90
9527;DHT22;4802;51.494;6.770;2022-08-24T08:10:20;39.20;99.90
9527;DHT22;4802;51.494;6.770;2022-08-24T08:12:54;39.00;99.90
9527;DHT22;4802;51.494;6.770;2022-08-24T08:15:23;39.70;99.90
9527;DHT22;4802;51.494;6.770;2022-08-24T08:17:54;39.50;99.90
9527;DHT22;4802;51.494;6.770;2022-08-24T08:20:30;39.30;99.90
9527;DHT22;4802;51.494;6.770;2022-08-24T08:23:02;39.70;99.90
9527;DHT22;4802;51.494;6.770;2022-08-24T08:25:52;39.60;99.90
9527;DHT22;4802;51.494;6.770;2022-08-24T08:28:26;39.50;99.90
9527;DHT22;4802;51.494;6.770;2022-08-24T08:31:03;39.80;99.90
9527;DHT22;4802;51.494;6.770;2022-08-24T08:33:33;39.70;99.90
9527;DHT22;4802;51.494;6.770;2022-08-24T08:36:12;40.30;99.90
9527;DHT22;4802;51.494;6.770;2022-08-24T08:39:15;40.40;99.90
9527;DHT22;4802;51.494;6.770;2022-08-24T08:42:36;40.90;99.90
9527;DHT22;4802;51.494;6.770;2022-08-24T08:45:34;41.00;99.90
9527;DHT22;4802;51.494;6.770;2022-08-24T08:48:41;41.00;99.90
9527;DHT22;4802;51.494;6.770;2022-08-24T08:54:53;41.50;99.90
9527;DHT22;4802;51.494;6.770;2022-08-24T08:57:49;41.30;99.90
9527;DHT22;4802;51.494;6.770;2022-08-24T09:00:32;40.80;99.90
9527;DHT22;4802;51.494;6.770;2022-08-24T09:03:36;40.30;99.90
9527;DHT22;4802;51.494;6.770;2022-08-24T09:06:40;39.40;99.90
9527;DHT22;4802;51.494;6.770;2022-08-24T09:09:33;38.50;99.90
9527;DHT22;4802;51.494;6.770;2022-08-24T09:12:13;37.50;99.90
9527;DHT22;4802;51.494;6.770;2022-08-24T09:15:16;37.70;99.90
9527;DHT22;4802;51.494;6.770;2022-08-24T09:18:04;38.00;99.90
9527;DHT22;4802;51.494;6.770;2022-08-24T09:20:56;38.20;99.90
9527;DHT22;4802;51.494;6.770;2022-08-24T09:23:37;38.50;99.90
9527;DHT22;4802;51.494;6.770;2022-08-24T09:26:21;38.90;99.90
9527;DHT22;4802;51.494;6.770;2022-08-24T09:29:07;38.30;99.90
9527;DHT22;4802;51.494;6.770;2022-08-24T09:31:56;38.10;99.90
9527;DHT22;4802;51.494;6.770;2022-08-24T09:34:53;38.60;99.90
9527;DHT22;4802;51.494;6.770;2022-08-24T09:37:33;39.00;99.90
9527;DHT22;4802;51.494;6.770;2022-08-24T09:40:21;39.30;99.90
9527;DHT22;4802;51.494;6.770;2022-08-24T09:46:33;40.70;99.90
9527;DHT22;4802;51.494;6.770;2022-08-24T09:52:28;40.40;99.90
9527;DHT22;4802;51.494;6.770;2022-08-24T09:55:33;40.40;99.90
9527;DHT22;4802;51.494;6.770;2022-08-24T09:58:18;39.90;99.90
9527;DHT22;4802;51.494;6.770;2022-08-24T10:01:01;39.90;99.90
9527;DHT22;4802;51.494;6.770;2022-08-24T10:03:52;40.00;99.90
9527;DHT22;4802;51.494;6.770;2022-08-24T10:06:49;39.50;99.90
9527;DHT22;4802;51.494;6.770;2022-08-24T10:09:40;39.20;99.90
9527;DHT22;4802;51.494;6.770;2022-08-24T10:12:21;38.60;99.90
9527;DHT22;4802;51.494;6.770;2022-08-24T10:15:01;38.30;99.90
9527;DHT22;4802;51.494;6.770;2022-08-24T10:17:43;38.20;99.90
9527;DHT22;4802;51.494;6.770;2022-08-24T10:20:21;37.50;99.90
9527;DHT22;4802;51.494;6.770;2022-08-24T10:23:17;37.10;99.90
9527;DHT22;4802;51.494;6.770;2022-08-24T10:26:00;36.90;99.90
9527;DHT22;4802;51.494;6.770;2022-08-24T10:31:54;36.70;99.90
9527;DHT22;4802;51.494;6.770;2022-08-24T10:34:37;36.50;99.90
9527;DHT22;4802;51.494;6.770;2022-08-24T10:37:36;36.30;99.90
9527;DHT22;4802;51.494;6.770;2022-08-24T10:40:29;36.50;99.90
9527;DHT22;4802;51.494;6.770;2022-08-24T10:46:39;36.50;99.90
9527;DHT22;4802;51.494;6.770;2022-08-24T10:49:42;36.50;99.90
9527;DHT22;4802;51.494;6.770;2022-08-24T10:55:32;36.60;99.90
9527;DHT22;4802;51.494;6.770;2022-08-24T11:01:13;36.10;99.90
9527;DHT22;4802;51.494;6.770;2022-08-24T11:03:51;35.80;99.90
9527;DHT22;4802;51.494;6.770;2022-08-24T11:06:24;35.10;99.90
9527;DHT22;4802;51.494;6.770;2022-08-24T11:09:00;35.40;99.90
9527;DHT22;4802;51.494;6.770;2022-08-24T11:11:34;35.30;99.90
9527;DHT22;4802;51.494;6.770;2022-08-24T11:14:08;35.60;99.90
9527;DHT22;4802;51.494;6.770;2022-08-24T11:16:42;34.70;99.90
9527;DHT22;4802;51.494;6.770;2022-08-24T11:19:16;34.80;99.90
9527;DHT22;4802;51.494;6.770;2022-08-24T11:22:00;34.90;99.90
9527;DHT22;4802;51.494;6.770;2022-08-24T11:24:40;35.60;99.90
9527;DHT22;4802;51.494;6.770;2022-08-24T11:27:27;36.10;99.90
9527;DHT22;4802;51.494;6.770;2022-08-24T11:30:00;36.50;99.90
9527;DHT22;4802;51.494;6.770;2022-08-24T11:32:35;36.70;99.90
9527;DHT22;4802;51.494;6.770;2022-08-24T11:35:12;36.90;99.90
9527;DHT22;4802;51.494;6.770;2022-08-24T11:37:44;37.00;99.90
9527;DHT22;4802;51.494;6.770;2022-08-24T11:40:15;37.30;99.90
9527;DHT22;4802;51.494;6.770;2022-08-24T11:43:09;37.40;99.90
9527;DHT22;4802;51.494;6.770;2022-08-24T11:45:43;37.20;99.90
9527;DHT22;4802;51.494;6.770;2022-08-24T11:48:24;36.50;99.90
9527;DHT22;4802;51.494;6.770;2022-08-24T11:50:58;35.60;99.90
9527;DHT22;4802;51.494;6.770;2022-08-24T11:53:38;35.60;99.90
9527;DHT22;4802;51.494;6.770;2022-08-24T11:56:19;35.90;99.90
9527;DHT22;4802;51.494;6.770;2022-08-24T11:58:56;36.10;99.90
9527;DHT22;4802;51.494;6.770;2022-08-24T12:01:31;35.80;99.90
9527;DHT22;4802;51.494;6.770;2022-08-24T12:04:19;36.00;99.90
9527;DHT22;4802;51.494;6.770;2022-08-24T12:07:02;35.90;99.90
9527;DHT22;4802;51.494;6.770;2022-08-24T12:09:47;36.20;99.90
9527;DHT22;4802;51.494;6.770;2022-08-24T12:12:26;36.40;99.90
9527;DHT22;4802;51.494;6.770;2022-08-24T12:15:06;34.80;99.90
9527;DHT22;4802;51.494;6.770;2022-08-24T12:17:42;34.50;99.90
9527;DHT22;4802;51.494;6.770;2022-08-24T12:20:21;34.30;99.90
9527;DHT22;4802;51.494;6.770;2022-08-24T12:22:57;34.20;99.90
9527;DHT22;4802;51.494;6.770;2022-08-24T12:25:30;34.50;99.90
9527;DHT22;4802;51.494;6.770;2022-08-24T12:28:21;35.20;99.90
9527;DHT22;4802;51.494;6.770;2022-08-24T12:30:57;36.10;99.90
9527;DHT22;4802;51.494;6.770;2022-08-24T12:33:30;36.40;99.90
9527;DHT22;4802;51.494;6.770;2022-08-24T12:36:08;36.70;99.90
9527;DHT22;4802;51.494;6.770;2022-08-24T12:38:44;36.70;99.90
9527;DHT22;4802;51.494;6.770;2022-08-24T12:41:22;36.60;99.90
9527;DHT22;4802;51.494;6.770;2022-08-24T12:44:09;36.50;99.90
9527;DHT22;4802;51.494;6.770;2022-08-24T12:47:00;36.70;99.90
9527;DHT22;4802;51.494;6.770;2022-08-24T12:49:56;36.80;99.90
9527;DHT22;4802;51.494;6.770;2022-08-24T12:56:04;36.30;99.90
9527;DHT22;4802;51.494;6.770;2022-08-24T12:58:57;35.80;99.90
9527;DHT22;4802;51.494;6.770;2022-08-24T13:01:30;35.30;99.90
9527;DHT22;4802;51.494;6.770;2022-08-24T13:04:13;35.10;99.90
9527;DHT22;4802;51.494;6.770;2022-08-24T13:06:48;34.90;99.90
9527;DHT22;4802;51.494;6.770;2022-08-24T13:09:30;34.30;99.90
9527;DHT22;4802;51.494;6.770;2022-08-24T13:15:49;34.20;99.90
9527;DHT22;4802;51.494;6.770;2022-08-24T13:18:46;34.00;99.90
9527;DHT22;4802;51.494;6.770;2022-08-24T13:21:37;34.30;99.90
9527;DHT22;4802;51.494;6.770;2022-08-24T13:33:29;35.40;99.90
9527;DHT22;4802;51.494;6.770;2022-08-24T13:36:05;35.60;99.90
9527;DHT22;4802;51.494;6.770;2022-08-24T13:38:58;35.00;99.90
9527;DHT22;4802;51.494;6.770;2022-08-24T13:41:48;35.00;99.90
9527;DHT22;4802;51.494;6.770;2022-08-24T13:44:33;34.40;99.90
9527;DHT22;4802;51.494;6.770;2022-08-24T13:47:14;33.80;99.90
9527;DHT22;4802;51.494;6.770;2022-08-24T13:49:55;33.80;99.90
9527;DHT22;4802;51.494;6.770;2022-08-24T13:52:46;33.90;99.90
9527;DHT22;4802;51.494;6.770;2022-08-24T13:55:40;34.10;99.90
9527;DHT22;4802;51.494;6.770;2022-08-24T13:58:18;34.10;99.90
9527;DHT22;4802;51.494;6.770;2022-08-24T14:00:51;34.20;99.90
9527;DHT22;4802;51.494;6.770;2022-08-24T14:03:52;34.20;99.90
9527;DHT22;4802;51.494;6.770;2022-08-24T14:06:31;34.40;99.90
9527;DHT22;4802;51.494;6.770;2022-08-24T14:09:20;34.10;99.90
9527;DHT22;4802;51.494;6.770;2022-08-24T14:12:06;34.10;99.90
9527;DHT22;4802;51.494;6.770;2022-08-24T14:15:02;34.00;99.90
9527;DHT22;4802;51.494;6.770;2022-08-24T14:17:49;34.10;99.90
9527;DHT22;4802;51.494;6.770;2022-08-24T14:20:41;34.20;99.90
9527;DHT22;4802;51.494;6.770;2022-08-24T14:23:46;34.30;99.90
9527;DHT22;4802;51.494;6.770;2022-08-24T14:26:53;34.00;99.90
9527;DHT22;4802;51.494;6.770;2022-08-24T14:29:31;33.90;99.90
9527;DHT22;4802;51.494;6.770;2022-08-24T14:32:31;33.90;99.90
9527;DHT22;4802;51.494;6.770;2022-08-24T14:35:29;33.90;99.90
9527;DHT22;4802;51.494;6.770;2022-08-24T14:38:28;33.90;99.90
9527;DHT22;4802;51.494;6.770;2022-08-24T14:41:42;33.90;99.90
9527;DHT22;4802;51.494;6.770;2022-08-24T14:47:37;33.80;99.90
9527;DHT22;4802;51.494;6.770;2022-08-24T14:50:13;33.80;99.90
9527;DHT22;4802;51.494;6.770;2022-08-24T14:52:55;33.80;99.90
9527;DHT22;4802;51.494;6.770;2022-08-24T14:55:33;33.50;99.90
9527;DHT22;4802;51.494;6.770;2022-08-24T14:58:13;33.50;99.90
9527;DHT22;4802;51.494;6.770;2022-08-24T15:01:10;33.50;99.90
9527;DHT22;4802;51.494;6.770;2022-08-24T15:04:13;33.60;99.90
9527;DHT22;4802;51.494;6.770;2022-08-24T15:07:25;33.60;99.90
9527;DHT22;4802;51.494;6.770;2022-08-24T15:09:58;33.60;99.90
9527;DHT22;4802;51.494;6.770;2022-08-24T15:12:34;33.70;99.90
9527;DHT22;4802;51.494;6.770;2022-08-24T15:15:12;33.70;99.90
9527;DHT22;4802;51.494;6.770;2022-08-24T15:17:52;33.70;99.90
9527;DHT22;4802;51.494;6.770;2022-08-24T15:23:20;33.90;99.90
9527;DHT22;4802;51.494;6.770;2022-08-24T15:25:57;33.90;99.90
9527;DHT22;4802;51.494;6.770;2022-08-24T15:28:31;33.80;99.90
9527;DHT22;4802;51.494;6.770;2022-08-24T15:31:06;33.90;99.90
9527;DHT22;4802;51.494;6.770;2022-08-24T15:36:59;34.00;99.90
9527;DHT22;4802;51.494;6.770;2022-08-24T15:39:30;33.90;99.90
9527;DHT22;4802;51.494;6.770;2022-08-24T15:42:06;33.80;99.90
9527;DHT22;4802;51.494;6.770;2022-08-24T15:44:37;33.70;99.90
9527;DHT22;4802;51.494;6.770;2022-08-24T15:47:20;33.30;99.90
9527;DHT22;4802;51.494;6.770;2022-08-24T15:49:56;33.10;99.90
9527;DHT22;4802;51.494;6.770;2022-08-24T15:52:42;32.90;99.90
9527;DHT22;4802;51.494;6.770;2022-08-24T15:55:31;32.40;99.90
9527;DHT22;4802;51.494;6.770;2022-08-24T15:58:22;32.90;99.90
9527;DHT22;4802;51.494;6.770;2022-08-24T16:00:58;32.60;99.90
9527;DHT22;4802;51.494;6.770;2022-08-24T16:03:50;32.70;99.90
9527;DHT22;4802;51.494;6.770;2022-08-24T16:06:33;32.60;99.90
9527;DHT22;4802;51.494;6.770;2022-08-24T16:09:08;32.60;99.90
9527;DHT22;4802;51.494;6.770;2022-08-24T16:11:40;32.70;99.90
9527;DHT22;4802;51.494;6.770;2022-08-24T16:14:25;32.60;99.90
9527;DHT22;4802;51.494;6.770;2022-08-24T16:16:56;32.70;99.90
9527;DHT22;4802;51.494;6.770;2022-08-24T16:19:29;32.50;99.90
9527;DHT22;4802;51.494;6.770;2022-08-24T16:22:04;32.60;99.90
9527;DHT22;4802;51.494;6.770;2022-08-24T16:24:39;32.60;99.90
9527;DHT22;4802;51.494;6.770;2022-08-24T16:27:16;32.40;99.90
9527;DHT22;4802;51.494;6.770;2022-08-24T16:29:52;32.30;99.90
9527;DHT22;4802;51.494;6.770;2022-08-24T16:32:25;32.50;99.90
9527;DHT22;4802;51.494;6.770;2022-08-24T16:35:18;32.40;99.90
9527;DHT22;4802;51.494;6.770;2022-08-24T16:37:48;32.30;99.90
9527;DHT22;4802;51.494;6.770;2022-08-24T16:40:25;32.20;99.90
9527;DHT22;4802;51.494;6.770;2022-08-24T16:42:55;32.10;99.90
9527;DHT22;4802;51.494;6.770;2022-08-24T16:45:27;32.00;99.90
9527;DHT22;4802;51.494;6.770;2022-08-24T16:48:03;31.90;99.90
9527;DHT22;4802;51.494;6.770;2022-08-24T16:50:36;32.00;99.90
9527;DHT22;4802;51.494;6.770;2022-08-24T16:53:07;31.90;99.90
9527;DHT22;4802;51.494;6.770;2022-08-24T16:55:39;31.90;99.90
9527;DHT22;4802;51.494;6.770;2022-08-24T16:58:12;31.90;99.90
9527;DHT22;4802;51.494;6.770;2022-08-24T17:00:49;31.90;99.90
9527;DHT22;4802;51.494;6.770;2022-08-24T17:03:21;31.70;99.90
9527;DHT22;4802;51.494;6.770;2022-08-24T17:05:56;31.90;99.90
9527;DHT22;4802;51.494;6.770;2022-08-24T17:08:28;31.90;99.90
9527;DHT22;4802;51.494;6.770;2022-08-24T17:11:00;31.90;99.90
9527;DHT22;4802;51.494;6.770;2022-08-24T17:13:31;31.80;99.90
9527;DHT22;4802;51.494;6.770;2022-08-24T17:16:20;31.80;99.90
9527;DHT22;4802;51.494;6.770;2022-08-24T17:18:50;31.90;99.90
9527;DHT22;4802;51.494;6.770;2022-08-24T17:21:27;31.90;99.90
9527;DHT22;4802;51.494;6.770;2022-08-24T17:23:57;31.70;99.90
9527;DHT22;4802;51.494;6.770;2022-08-24T17:26:29;31.70;99.90
9527;DHT22;4802;51.494;6.770;2022-08-24T17:29:02;31.70;99.90
9527;DHT22;4802;51.494;6.770;2022-08-24T17:31:32;31.70;99.90
9527;DHT22;4802;51.494;6.770;2022-08-24T17:34:03;31.70;99.90
9527;DHT22;4802;51.494;6.770;2022-08-24T17:36:35;31.60;99.90
9527;DHT22;4802;51.494;6.770;2022-08-24T17:39:05;31.60;99.90
9527;DHT22;4802;51.494;6.770;2022-08-24T17:41:36;31.60;99.90
9527;DHT22;4802;51.494;6.770;2022-08-24T17:44:07;31.60;99.90
9527;DHT22;4802;51.494;6.770;2022-08-24T17:46:39;31.70;99.90
9527;DHT22;4802;51.494;6.770;2022-08-24T17:49:09;31.40;99.90
9527;DHT22;4802;51.494;6.770;2022-08-24T17:51:39;31.40;99.90
9527;DHT22;4802;51.494;6.770;2022-08-24T17:54:09;31.40;99.90
9527;DHT22;4802;51.494;6.770;2022-08-24T17:56:40;31.40;99.90
9527;DHT22;4802;51.494;6.770;2022-08-24T17:59:14;31.30;99.90
9527;DHT22;4802;51.494;6.770;2022-08-24T18:01:52;31.20;99.90
9527;DHT22;4802;51.494;6.770;2022-08-24T18:04:25;31.20;99.90
9527;DHT22;4802;51.494;6.770;2022-08-24T18:07:03;31.10;99.90